sensor_id;sensor_type;location;lat;lon;timestamp;temperature;humidity
65207;SHT31;58477;48.072;11.970;2023-04-28T00:01:26;7.62;85.99
65207;SHT31;58477;48.072;11.970;2023-04-28T00:03:51;7.52;86.21
65207;SHT31;58477;48.072;11.970;2023-04-28T00:06:17;7.46;86.45
65207;SHT31;58477;48.072;11.970;2023-04-28T00:08:42;7.63;86.14
65207;SHT31;58477;48.072;11.970;2023-04-28T00:11:09;7.77;85.95
65207;SHT31;58477;48.072;11.970;2023-04-28T00:13:35;7.82;85.66
65207;SHT31;58477;48.072;11.970;2023-04-28T00:16:00;7.73;86.35
65207;SHT31;58477;48.072;11.970;2023-04-28T00:18:26;7.82;86.14
65207;SHT31;58477;48.072;11.970;2023-04-28T00:20:51;7.93;86.09
65207;SHT31;58477;48.072;11.970;2023-04-28T00:23:17;7.89;85.96
65207;SHT31;58477;48.072;11.970;2023-04-28T00:25:42;7.86;86.22
65207;SHT31;58477;48.072;11.970;2023-04-28T00:28:07;7.86;86.44
65207;SHT31;58477;48.072;11.970;2023-04-28T00:30:33;7.87;86.64
65207;SHT31;58477;48.072;11.970;2023-04-28T00:32:58;7.83;86.54
65207;SHT31;58477;48.072;11.970;2023-04-28T00:35:24;7.95;86.36
65207;SHT31;58477;48.072;11.970;2023-04-28T00:37:49;7.95;86.34
65207;SHT31;58477;48.072;11.970;2023-04-28T00:40:14;7.86;86.58
65207;SHT31;58477;48.072;11.970;2023-04-28T00:42:40;7.86;86.58
65207;SHT31;58477;48.072;11.970;2023-04-28T00:45:06;7.94;86.64
65207;SHT31;58477;48.072;11.970;2023-04-28T00:47:36;8.03;86.56
65207;SHT31;58477;48.072;11.970;2023-04-28T00:50:03;8.00;86.48
65207;SHT31;58477;48.072;11.970;2023-04-28T00:52:48;7.82;86.84
65207;SHT31;58477;48.072;11.970;2023-04-28T00:55:23;7.82;87.00
65207;SHT31;58477;48.072;11.970;2023-04-28T00:57:50;7.80;87.13
65207;SHT31;58477;48.072;11.970;2023-04-28T01:00:16;7.83;87.02
65207;SHT31;58477;48.072;11.970;2023-04-28T01:02:42;7.83;86.86
65207;SHT31;58477;48.072;11.970;2023-04-28T01:05:08;7.86;86.67
65207;SHT31;58477;48.072;11.970;2023-04-28T01:07:34;7.87;86.65
65207;SHT31;58477;48.072;11.970;2023-04-28T01:10:02;8.01;86.51
65207;SHT31;58477;48.072;11.970;2023-04-28T01:12:30;8.20;86.06
65207;SHT31;58477;48.072;11.970;2023-04-28T01:14:57;8.17;86.20
65207;SHT31;58477;48.072;11.970;2023-04-28T01:17:22;8.08;86.32
65207;SHT31;58477;48.072;11.970;2023-04-28T01:19:48;8.05;86.12
65207;SHT31;58477;48.072;11.970;2023-04-28T01:22:14;8.11;86.31
65207;SHT31;58477;48.072;11.970;2023-04-28T01:24:41;8.11;86.29
65207;SHT31;58477;48.072;11.970;2023-04-28T01:27:08;8.08;86.23
65207;SHT31;58477;48.072;11.970;2023-04-28T01:29:35;8.05;86.47
65207;SHT31;58477;48.072;11.970;2023-04-28T01:32:02;7.95;86.62
65207;SHT31;58477;48.072;11.970;2023-04-28T01:34:28;7.90;86.79
65207;SHT31;58477;48.072;11.970;2023-04-28T01:36:53;7.89;86.96
65207;SHT31;58477;48.072;11.970;2023-04-28T01:39:19;7.84;87.00
65207;SHT31;58477;48.072;11.970;2023-04-28T01:41:44;7.87;87.08
65207;SHT31;58477;48.072;11.970;2023-04-28T01:44:10;7.93;87.07
65207;SHT31;58477;48.072;11.970;2023-04-28T01:46:37;8.00;86.59
65207;SHT31;58477;48.072;11.970;2023-04-28T01:49:02;7.98;87.06
65207;SHT31;58477;48.072;11.970;2023-04-28T01:51:28;7.97;87.25
65207;SHT31;58477;48.072;11.970;2023-04-28T01:53:53;7.87;87.04
65207;SHT31;58477;48.072;11.970;2023-04-28T01:56:19;8.00;87.02
65207;SHT31;58477;48.072;11.970;2023-04-28T01:58:45;7.80;87.40
65207;SHT31;58477;48.072;11.970;2023-04-28T02:01:11;7.84;87.50
65207;SHT31;58477;48.072;11.970;2023-04-28T02:03:37;7.83;87.61
65207;SHT31;58477;48.072;11.970;2023-04-28T02:06:02;7.65;87.95
65207;SHT31;58477;48.072;11.970;2023-04-28T02:08:29;7.58;88.14
65207;SHT31;58477;48.072;11.970;2023-04-28T02:10:54;7.66;87.96
65207;SHT31;58477;48.072;11.970;2023-04-28T02:13:21;7.80;87.52
65207;SHT31;58477;48.072;11.970;2023-04-28T02:15:47;8.05;87.04
65207;SHT31;58477;48.072;11.970;2023-04-28T02:18:12;8.08;86.75
65207;SHT31;58477;48.072;11.970;2023-04-28T02:20:39;8.14;86.83
65207;SHT31;58477;48.072;11.970;2023-04-28T02:23:07;8.14;86.84
65207;SHT31;58477;48.072;11.970;2023-04-28T02:25:32;8.01;87.27
65207;SHT31;58477;48.072;11.970;2023-04-28T02:27:58;8.03;87.50
65207;SHT31;58477;48.072;11.970;2023-04-28T02:30:24;8.04;87.56
65207;SHT31;58477;48.072;11.970;2023-04-28T02:32:50;8.10;87.21
65207;SHT31;58477;48.072;11.970;2023-04-28T02:35:16;8.08;87.26
65207;SHT31;58477;48.072;11.970;2023-04-28T02:37:42;8.11;87.18
65207;SHT31;58477;48.072;11.970;2023-04-28T02:40:08;8.17;86.94
65207;SHT31;58477;48.072;11.970;2023-04-28T02:42:33;8.05;87.05
65207;SHT31;58477;48.072;11.970;2023-04-28T02:44:59;8.04;87.24
65207;SHT31;58477;48.072;11.970;2023-04-28T02:47:24;8.10;87.32
65207;SHT31;58477;48.072;11.970;2023-04-28T02:49:50;8.14;87.13
65207;SHT31;58477;48.072;11.970;2023-04-28T02:52:16;8.15;87.84
65207;SHT31;58477;48.072;11.970;2023-04-28T02:54:41;7.94;88.85
65207;SHT31;58477;48.072;11.970;2023-04-28T02:57:07;8.05;88.28
65207;SHT31;58477;48.072;11.970;2023-04-28T02:59:32;8.00;89.06
65207;SHT31;58477;48.072;11.970;2023-04-28T03:01:57;7.93;90.48
65207;SHT31;58477;48.072;11.970;2023-04-28T03:04:23;7.95;89.19
65207;SHT31;58477;48.072;11.970;2023-04-28T03:06:49;7.93;88.96
65207;SHT31;58477;48.072;11.970;2023-04-28T03:09:15;7.84;89.87
65207;SHT31;58477;48.072;11.970;2023-04-28T03:11:40;7.87;89.20
65207;SHT31;58477;48.072;11.970;2023-04-28T03:14:06;7.77;90.16
65207;SHT31;58477;48.072;11.970;2023-04-28T03:16:32;7.79;89.96
65207;SHT31;58477;48.072;11.970;2023-04-28T03:18:57;7.80;89.85
65207;SHT31;58477;48.072;11.970;2023-04-28T03:21:24;7.77;89.97
65207;SHT31;58477;48.072;11.970;2023-04-28T03:23:52;7.74;90.15
65207;SHT31;58477;48.072;11.970;2023-04-28T03:26:18;7.73;90.53
65207;SHT31;58477;48.072;11.970;2023-04-28T03:28:43;7.76;90.16
65207;SHT31;58477;48.072;11.970;2023-04-28T03:31:09;7.84;90.30
65207;SHT31;58477;48.072;11.970;2023-04-28T03:33:34;7.79;89.95
65207;SHT31;58477;48.072;11.970;2023-04-28T03:36:00;7.86;89.92
65207;SHT31;58477;48.072;11.970;2023-04-28T03:38:26;7.87;90.03
65207;SHT31;58477;48.072;11.970;2023-04-28T03:40:52;7.94;89.67
65207;SHT31;58477;48.072;11.970;2023-04-28T03:43:27;7.93;90.20
65207;SHT31;58477;48.072;11.970;2023-04-28T03:46:06;7.89;90.23
65207;SHT31;58477;48.072;11.970;2023-04-28T03:48:32;7.84;90.60
65207;SHT31;58477;48.072;11.970;2023-04-28T03:50:57;7.76;91.10
65207;SHT31;58477;48.072;11.970;2023-04-28T03:53:24;7.74;90.47
65207;SHT31;58477;48.072;11.970;2023-04-28T03:55:49;7.70;90.18
65207;SHT31;58477;48.072;11.970;2023-04-28T03:58:16;7.67;90.21
65207;SHT31;58477;48.072;11.970;2023-04-28T04:00:43;7.60;91.17
65207;SHT31;58477;48.072;11.970;2023-04-28T04:03:09;7.60;91.31
65207;SHT31;58477;48.072;11.970;2023-04-28T04:05:34;7.59;90.62
65207;SHT31;58477;48.072;11.970;2023-04-28T04:07:59;7.60;91.54
65207;SHT31;58477;48.072;11.970;2023-04-28T04:10:26;7.60;90.98
65207;SHT31;58477;48.072;11.970;2023-04-28T04:12:52;7.60;91.33
65207;SHT31;58477;48.072;11.970;2023-04-28T04:15:18;7.59;91.34
65207;SHT31;58477;48.072;11.970;2023-04-28T04:17:45;7.62;92.36
65207;SHT31;58477;48.072;11.970;2023-04-28T04:20:11;7.63;92.09
65207;SHT31;58477;48.072;11.970;2023-04-28T04:22:37;7.48;92.11
65207;SHT31;58477;48.072;11.970;2023-04-28T04:25:02;7.66;90.71
65207;SHT31;58477;48.072;11.970;2023-04-28T04:27:28;7.66;90.53
65207;SHT31;58477;48.072;11.970;2023-04-28T04:29:54;7.73;91.00
65207;SHT31;58477;48.072;11.970;2023-04-28T04:32:19;7.79;90.94
65207;SHT31;58477;48.072;11.970;2023-04-28T04:34:44;7.77;91.57
65207;SHT31;58477;48.072;11.970;2023-04-28T04:37:10;7.77;91.53
65207;SHT31;58477;48.072;11.970;2023-04-28T04:39:41;7.62;92.50
65207;SHT31;58477;48.072;11.970;2023-04-28T04:42:08;7.60;92.80
65207;SHT31;58477;48.072;11.970;2023-04-28T04:44:43;7.46;93.82
65207;SHT31;58477;48.072;11.970;2023-04-28T04:47:17;7.53;92.90
65207;SHT31;58477;48.072;11.970;2023-04-28T04:49:44;7.66;92.50
65207;SHT31;58477;48.072;11.970;2023-04-28T04:52:10;7.67;92.80
65207;SHT31;58477;48.072;11.970;2023-04-28T04:54:36;7.77;92.05
65207;SHT31;58477;48.072;11.970;2023-04-28T04:57:02;7.89;91.16
65207;SHT31;58477;48.072;11.970;2023-04-28T04:59:47;7.95;90.83
65207;SHT31;58477;48.072;11.970;2023-04-28T05:02:16;8.05;90.63
65207;SHT31;58477;48.072;11.970;2023-04-28T05:04:42;8.13;91.44
65207;SHT31;58477;48.072;11.970;2023-04-28T05:07:08;8.31;89.97
65207;SHT31;58477;48.072;11.970;2023-04-28T05:09:33;8.35;90.73
65207;SHT31;58477;48.072;11.970;2023-04-28T05:11:59;8.34;91.32
65207;SHT31;58477;48.072;11.970;2023-04-28T05:14:25;8.48;90.42
65207;SHT31;58477;48.072;11.970;2023-04-28T05:16:51;8.45;90.81
65207;SHT31;58477;48.072;11.970;2023-04-28T05:19:25;8.64;90.67
65207;SHT31;58477;48.072;11.970;2023-04-28T05:21:51;8.68;90.37
65207;SHT31;58477;48.072;11.970;2023-04-28T05:24:21;8.41;91.24
65207;SHT31;58477;48.072;11.970;2023-04-28T05:26:49;8.47;90.40
65207;SHT31;58477;48.072;11.970;2023-04-28T05:29:17;8.52;91.13
65207;SHT31;58477;48.072;11.970;2023-04-28T05:31:42;8.48;90.78
65207;SHT31;58477;48.072;11.970;2023-04-28T05:34:08;8.54;89.97
65207;SHT31;58477;48.072;11.970;2023-04-28T05:36:34;8.47;91.63
65207;SHT31;58477;48.072;11.970;2023-04-28T05:38:59;8.41;90.78
65207;SHT31;58477;48.072;11.970;2023-04-28T05:41:25;8.38;90.84
65207;SHT31;58477;48.072;11.970;2023-04-28T05:43:50;8.34;90.11
65207;SHT31;58477;48.072;11.970;2023-04-28T05:46:16;8.34;91.75
65207;SHT31;58477;48.072;11.970;2023-04-28T05:48:42;8.42;90.29
65207;SHT31;58477;48.072;11.970;2023-04-28T05:51:09;8.30;90.61
65207;SHT31;58477;48.072;11.970;2023-04-28T05:53:34;8.33;92.07
65207;SHT31;58477;48.072;11.970;2023-04-28T05:56:00;8.37;92.43
65207;SHT31;58477;48.072;11.970;2023-04-28T05:58:25;8.45;92.61
65207;SHT31;58477;48.072;11.970;2023-04-28T06:00:51;8.51;92.92
65207;SHT31;58477;48.072;11.970;2023-04-28T06:03:18;8.59;93.11
65207;SHT31;58477;48.072;11.970;2023-04-28T06:05:44;8.71;92.98
65207;SHT31;58477;48.072;11.970;2023-04-28T06:08:11;8.67;92.58
65207;SHT31;58477;48.072;11.970;2023-04-28T06:10:37;8.64;91.78
65207;SHT31;58477;48.072;11.970;2023-04-28T06:13:02;8.68;91.89
65207;SHT31;58477;48.072;11.970;2023-04-28T06:15:29;8.61;91.98
65207;SHT31;58477;48.072;11.970;2023-04-28T06:17:55;8.65;92.88
65207;SHT31;58477;48.072;11.970;2023-04-28T06:20:20;8.67;92.30
65207;SHT31;58477;48.072;11.970;2023-04-28T06:22:45;8.72;92.13
65207;SHT31;58477;48.072;11.970;2023-04-28T06:25:11;8.71;91.08
65207;SHT31;58477;48.072;11.970;2023-04-28T06:27:54;8.68;91.65
65207;SHT31;58477;48.072;11.970;2023-04-28T06:30:21;8.68;91.46
65207;SHT31;58477;48.072;11.970;2023-04-28T06:32:46;8.69;92.58
65207;SHT31;58477;48.072;11.970;2023-04-28T06:35:12;8.71;93.35
65207;SHT31;58477;48.072;11.970;2023-04-28T06:37:38;8.67;93.86
65207;SHT31;58477;48.072;11.970;2023-04-28T06:40:04;8.59;93.10
65207;SHT31;58477;48.072;11.970;2023-04-28T06:42:29;8.57;93.90
65207;SHT31;58477;48.072;11.970;2023-04-28T06:45:03;8.62;92.53
65207;SHT31;58477;48.072;11.970;2023-04-28T06:47:28;8.73;91.08
65207;SHT31;58477;48.072;11.970;2023-04-28T06:49:54;8.69;91.09
65207;SHT31;58477;48.072;11.970;2023-04-28T06:52:19;8.82;90.82
65207;SHT31;58477;48.072;11.970;2023-04-28T06:54:46;8.92;91.67
65207;SHT31;58477;48.072;11.970;2023-04-28T06:57:12;8.90;90.49
65207;SHT31;58477;48.072;11.970;2023-04-28T06:59:38;8.78;90.01
65207;SHT31;58477;48.072;11.970;2023-04-28T07:02:04;8.73;90.60
65207;SHT31;58477;48.072;11.970;2023-04-28T07:04:29;8.98;92.17
65207;SHT31;58477;48.072;11.970;2023-04-28T07:06:55;9.20;91.49
65207;SHT31;58477;48.072;11.970;2023-04-28T07:09:20;9.53;90.10
65207;SHT31;58477;48.072;11.970;2023-04-28T07:11:45;9.74;89.35
65207;SHT31;58477;48.072;11.970;2023-04-28T07:14:11;9.99;88.98
65207;SHT31;58477;48.072;11.970;2023-04-28T07:16:36;10.21;87.83
65207;SHT31;58477;48.072;11.970;2023-04-28T07:19:02;10.15;86.78
65207;SHT31;58477;48.072;11.970;2023-04-28T07:21:27;10.41;87.03
65207;SHT31;58477;48.072;11.970;2023-04-28T07:23:53;10.52;87.45
65207;SHT31;58477;48.072;11.970;2023-04-28T07:26:22;10.52;86.90
65207;SHT31;58477;48.072;11.970;2023-04-28T07:28:47;10.61;86.75
65207;SHT31;58477;48.072;11.970;2023-04-28T07:31:13;10.71;87.09
65207;SHT31;58477;48.072;11.970;2023-04-28T07:33:38;10.73;86.57
65207;SHT31;58477;48.072;11.970;2023-04-28T07:36:04;10.63;86.80
65207;SHT31;58477;48.072;11.970;2023-04-28T07:38:30;10.35;87.17
65207;SHT31;58477;48.072;11.970;2023-04-28T07:40:57;10.07;89.30
65207;SHT31;58477;48.072;11.970;2023-04-28T07:43:23;9.97;88.76
65207;SHT31;58477;48.072;11.970;2023-04-28T07:45:48;9.95;88.90
65207;SHT31;58477;48.072;11.970;2023-04-28T07:48:14;9.80;90.14
65207;SHT31;58477;48.072;11.970;2023-04-28T07:50:40;9.91;88.98
65207;SHT31;58477;48.072;11.970;2023-04-28T07:53:06;9.91;89.42
65207;SHT31;58477;48.072;11.970;2023-04-28T07:55:31;9.99;89.87
65207;SHT31;58477;48.072;11.970;2023-04-28T07:57:56;9.76;91.07
65207;SHT31;58477;48.072;11.970;2023-04-28T08:00:23;9.86;91.82
65207;SHT31;58477;48.072;11.970;2023-04-28T08:02:49;10.05;90.27
65207;SHT31;58477;48.072;11.970;2023-04-28T08:05:15;10.14;90.47
65207;SHT31;58477;48.072;11.970;2023-04-28T08:07:41;10.08;89.92
65207;SHT31;58477;48.072;11.970;2023-04-28T08:10:09;10.29;89.41
65207;SHT31;58477;48.072;11.970;2023-04-28T08:12:34;10.09;90.39
65207;SHT31;58477;48.072;11.970;2023-04-28T08:15:00;10.21;89.80
65207;SHT31;58477;48.072;11.970;2023-04-28T08:17:25;10.25;90.46
65207;SHT31;58477;48.072;11.970;2023-04-28T08:19:51;10.51;89.20
65207;SHT31;58477;48.072;11.970;2023-04-28T08:22:16;10.39;89.51
65207;SHT31;58477;48.072;11.970;2023-04-28T08:24:41;10.58;90.07
65207;SHT31;58477;48.072;11.970;2023-04-28T08:27:07;10.53;92.53
65207;SHT31;58477;48.072;11.970;2023-04-28T08:29:33;10.62;90.18
65207;SHT31;58477;48.072;11.970;2023-04-28T08:31:58;10.66;90.16
65207;SHT31;58477;48.072;11.970;2023-04-28T08:34:26;10.44;90.54
65207;SHT31;58477;48.072;11.970;2023-04-28T08:36:51;10.45;90.64
65207;SHT31;58477;48.072;11.970;2023-04-28T08:39:17;10.45;91.93
65207;SHT31;58477;48.072;11.970;2023-04-28T08:41:44;10.58;90.53
65207;SHT31;58477;48.072;11.970;2023-04-28T08:44:10;10.58;91.34
65207;SHT31;58477;48.072;11.970;2023-04-28T08:46:40;10.73;91.55
65207;SHT31;58477;48.072;11.970;2023-04-28T08:49:13;10.71;91.86
65207;SHT31;58477;48.072;11.970;2023-04-28T08:51:50;10.82;91.55
65207;SHT31;58477;48.072;11.970;2023-04-28T08:54:18;10.95;91.39
65207;SHT31;58477;48.072;11.970;2023-04-28T08:56:45;10.93;91.57
65207;SHT31;58477;48.072;11.970;2023-04-28T08:59:12;10.88;91.25
65207;SHT31;58477;48.072;11.970;2023-04-28T09:01:37;10.91;91.92
65207;SHT31;58477;48.072;11.970;2023-04-28T09:04:03;10.96;91.65
65207;SHT31;58477;48.072;11.970;2023-04-28T09:06:32;10.96;92.86
65207;SHT31;58477;48.072;11.970;2023-04-28T09:09:21;10.89;91.99
65207;SHT31;58477;48.072;11.970;2023-04-28T09:12:00;10.63;92.93
65207;SHT31;58477;48.072;11.970;2023-04-28T09:14:30;10.39;93.82
65207;SHT31;58477;48.072;11.970;2023-04-28T09:16:57;10.49;93.80
65207;SHT31;58477;48.072;11.970;2023-04-28T09:19:23;10.29;94.94
65207;SHT31;58477;48.072;11.970;2023-04-28T09:21:54;10.37;94.92
65207;SHT31;58477;48.072;11.970;2023-04-28T09:24:30;10.52;95.13
65207;SHT31;58477;48.072;11.970;2023-04-28T09:27:00;10.59;94.90
65207;SHT31;58477;48.072;11.970;2023-04-28T09:29:27;10.61;93.18
65207;SHT31;58477;48.072;11.970;2023-04-28T09:31:52;10.53;93.13
65207;SHT31;58477;48.072;11.970;2023-04-28T09:34:19;10.53;92.17
65207;SHT31;58477;48.072;11.970;2023-04-28T09:36:44;10.41;93.04
65207;SHT31;58477;48.072;11.970;2023-04-28T09:39:10;10.38;92.95
65207;SHT31;58477;48.072;11.970;2023-04-28T09:41:41;10.52;93.48
65207;SHT31;58477;48.072;11.970;2023-04-28T09:44:15;10.65;92.78
65207;SHT31;58477;48.072;11.970;2023-04-28T09:46:45;10.72;92.36
65207;SHT31;58477;48.072;11.970;2023-04-28T09:49:11;10.80;92.07
65207;SHT31;58477;48.072;11.970;2023-04-28T09:51:37;10.73;92.70
65207;SHT31;58477;48.072;11.970;2023-04-28T09:54:03;10.65;92.85
65207;SHT31;58477;48.072;11.970;2023-04-28T09:56:31;10.69;92.62
65207;SHT31;58477;48.072;11.970;2023-04-28T09:58:58;10.66;92.84
65207;SHT31;58477;48.072;11.970;2023-04-28T10:01:31;10.69;92.40
65207;SHT31;58477;48.072;11.970;2023-04-28T10:03:59;10.61;93.00
65207;SHT31;58477;48.072;11.970;2023-04-28T10:06:26;10.53;93.43
65207;SHT31;58477;48.072;11.970;2023-04-28T10:08:54;10.29;94.73
65207;SHT31;58477;48.072;11.970;2023-04-28T10:11:22;10.35;94.97
65207;SHT31;58477;48.072;11.970;2023-04-28T10:13:49;10.44;94.61
65207;SHT31;58477;48.072;11.970;2023-04-28T10:16:16;10.48;94.78
65207;SHT31;58477;48.072;11.970;2023-04-28T10:18:42;10.53;94.98
65207;SHT31;58477;48.072;11.970;2023-04-28T10:21:09;10.38;95.05
65207;SHT31;58477;48.072;11.970;2023-04-28T10:26:20;10.61;94.65
65207;SHT31;58477;48.072;11.970;2023-04-28T10:28:50;10.61;94.31
65207;SHT31;58477;48.072;11.970;2023-04-28T10:31:17;10.69;94.36
65207;SHT31;58477;48.072;11.970;2023-04-28T10:33:43;10.63;94.09
65207;SHT31;58477;48.072;11.970;2023-04-28T10:36:09;10.63;94.99
65207;SHT31;58477;48.072;11.970;2023-04-28T10:38:35;10.79;94.65
65207;SHT31;58477;48.072;11.970;2023-04-28T10:41:32;11.02;94.34
65207;SHT31;58477;48.072;11.970;2023-04-28T10:43:57;10.96;93.66
65207;SHT31;58477;48.072;11.970;2023-04-28T10:46:23;10.97;94.36
65207;SHT31;58477;48.072;11.970;2023-04-28T10:56:11;10.77;94.80
65207;SHT31;58477;48.072;11.970;2023-04-28T10:58:39;10.75;94.94
65207;SHT31;58477;48.072;11.970;2023-04-28T11:08:57;10.63;95.35
65207;SHT31;58477;48.072;11.970;2023-04-28T11:11:31;10.83;95.58
65207;SHT31;58477;48.072;11.970;2023-04-28T11:19:21;10.73;95.90
65207;SHT31;58477;48.072;11.970;2023-04-28T11:21:49;10.88;96.24
65207;SHT31;58477;48.072;11.970;2023-04-28T11:24:15;11.13;95.58
65207;SHT31;58477;48.072;11.970;2023-04-28T11:26:42;11.20;95.07
65207;SHT31;58477;48.072;11.970;2023-04-28T11:29:08;11.13;94.90
65207;SHT31;58477;48.072;11.970;2023-04-28T11:31:35;11.03;95.65
65207;SHT31;58477;48.072;11.970;2023-04-28T11:36:34;11.00;96.11
65207;SHT31;58477;48.072;11.970;2023-04-28T11:39:07;10.92;96.93
65207;SHT31;58477;48.072;11.970;2023-04-28T11:41:34;11.00;96.37
65207;SHT31;58477;48.072;11.970;2023-04-28T11:44:00;11.13;96.41
65207;SHT31;58477;48.072;11.970;2023-04-28T11:46:33;11.24;96.87
65207;SHT31;58477;48.072;11.970;2023-04-28T11:49:01;11.22;96.77
65207;SHT31;58477;48.072;11.970;2023-04-28T11:51:37;11.46;96.45
65207;SHT31;58477;48.072;11.970;2023-04-28T11:54:04;11.57;95.59
65207;SHT31;58477;48.072;11.970;2023-04-28T11:56:36;11.70;94.60
65207;SHT31;58477;48.072;11.970;2023-04-28T11:59:04;11.60;96.35
65207;SHT31;58477;48.072;11.970;2023-04-28T12:01:31;11.71;95.24
65207;SHT31;58477;48.072;11.970;2023-04-28T12:03:57;11.87;95.55
65207;SHT31;58477;48.072;11.970;2023-04-28T12:06:22;11.78;95.26
65207;SHT31;58477;48.072;11.970;2023-04-28T12:08:48;11.81;94.94
65207;SHT31;58477;48.072;11.970;2023-04-28T12:11:14;11.88;95.36
65207;SHT31;58477;48.072;11.970;2023-04-28T12:13:42;11.80;95.68
65207;SHT31;58477;48.072;11.970;2023-04-28T12:16:08;11.82;96.25
65207;SHT31;58477;48.072;11.970;2023-04-28T12:18:36;11.87;95.10
65207;SHT31;58477;48.072;11.970;2023-04-28T12:21:03;11.85;94.39
65207;SHT31;58477;48.072;11.970;2023-04-28T12:23:33;11.63;94.85
65207;SHT31;58477;48.072;11.970;2023-04-28T12:26:00;11.54;96.04
65207;SHT31;58477;48.072;11.970;2023-04-28T12:28:37;11.57;95.22
65207;SHT31;58477;48.072;11.970;2023-04-28T12:31:04;11.66;96.42
65207;SHT31;58477;48.072;11.970;2023-04-28T12:33:29;11.78;96.11
65207;SHT31;58477;48.072;11.970;2023-04-28T12:35:56;11.73;95.68
65207;SHT31;58477;48.072;11.970;2023-04-28T12:38:22;11.90;95.24
65207;SHT31;58477;48.072;11.970;2023-04-28T12:40:48;11.91;95.03
65207;SHT31;58477;48.072;11.970;2023-04-28T12:43:13;11.97;94.51
65207;SHT31;58477;48.072;11.970;2023-04-28T12:45:40;11.97;95.38
65207;SHT31;58477;48.072;11.970;2023-04-28T12:48:05;12.14;95.46
65207;SHT31;58477;48.072;11.970;2023-04-28T12:50:31;12.15;94.55
65207;SHT31;58477;48.072;11.970;2023-04-28T12:52:57;12.10;94.55
65207;SHT31;58477;48.072;11.970;2023-04-28T12:55:23;12.18;95.22
65207;SHT31;58477;48.072;11.970;2023-04-28T12:57:48;12.18;95.56
65207;SHT31;58477;48.072;11.970;2023-04-28T13:00:14;12.18;96.53
65207;SHT31;58477;48.072;11.970;2023-04-28T13:02:45;12.17;94.16
65207;SHT31;58477;48.072;11.970;2023-04-28T13:05:11;12.26;93.98
65207;SHT31;58477;48.072;11.970;2023-04-28T13:07:38;12.32;92.93
65207;SHT31;58477;48.072;11.970;2023-04-28T13:10:04;12.12;93.26
65207;SHT31;58477;48.072;11.970;2023-04-28T13:12:30;12.21;94.79
65207;SHT31;58477;48.072;11.970;2023-04-28T13:14:57;12.24;94.38
65207;SHT31;58477;48.072;11.970;2023-04-28T13:17:23;12.31;94.37
65207;SHT31;58477;48.072;11.970;2023-04-28T13:19:48;12.34;94.70
65207;SHT31;58477;48.072;11.970;2023-04-28T13:22:14;12.35;94.47
65207;SHT31;58477;48.072;11.970;2023-04-28T13:24:40;12.38;93.98
65207;SHT31;58477;48.072;11.970;2023-04-28T13:27:05;12.32;94.55
65207;SHT31;58477;48.072;11.970;2023-04-28T13:29:34;12.32;93.80
65207;SHT31;58477;48.072;11.970;2023-04-28T13:32:01;12.38;94.36
65207;SHT31;58477;48.072;11.970;2023-04-28T13:34:26;12.36;93.68
65207;SHT31;58477;48.072;11.970;2023-04-28T13:36:53;12.45;92.92
65207;SHT31;58477;48.072;11.970;2023-04-28T13:39:20;12.85;93.33
65207;SHT31;58477;48.072;11.970;2023-04-28T13:41:46;12.95;93.09
65207;SHT31;58477;48.072;11.970;2023-04-28T13:44:13;12.75;92.32
65207;SHT31;58477;48.072;11.970;2023-04-28T13:46:39;12.66;92.20
65207;SHT31;58477;48.072;11.970;2023-04-28T13:49:04;12.72;92.91
65207;SHT31;58477;48.072;11.970;2023-04-28T13:51:29;12.89;92.82
65207;SHT31;58477;48.072;11.970;2023-04-28T13:53:57;13.17;92.80
65207;SHT31;58477;48.072;11.970;2023-04-28T13:56:23;13.23;91.29
65207;SHT31;58477;48.072;11.970;2023-04-28T13:58:48;13.20;92.06
65207;SHT31;58477;48.072;11.970;2023-04-28T14:01:14;13.41;91.67
65207;SHT31;58477;48.072;11.970;2023-04-28T14:03:39;13.44;91.25
65207;SHT31;58477;48.072;11.970;2023-04-28T14:06:05;13.55;90.41
65207;SHT31;58477;48.072;11.970;2023-04-28T14:08:31;13.33;90.86
65207;SHT31;58477;48.072;11.970;2023-04-28T14:10:57;13.50;90.59
65207;SHT31;58477;48.072;11.970;2023-04-28T14:13:22;13.95;91.05
65207;SHT31;58477;48.072;11.970;2023-04-28T14:15:52;14.46;89.23
65207;SHT31;58477;48.072;11.970;2023-04-28T14:18:20;14.59;89.53
65207;SHT31;58477;48.072;11.970;2023-04-28T14:20:45;13.98;88.05
65207;SHT31;58477;48.072;11.970;2023-04-28T14:23:11;14.00;90.25
65207;SHT31;58477;48.072;11.970;2023-04-28T14:25:37;14.15;89.93
65207;SHT31;58477;48.072;11.970;2023-04-28T14:28:02;14.00;89.21
65207;SHT31;58477;48.072;11.970;2023-04-28T14:30:28;14.08;88.48
65207;SHT31;58477;48.072;11.970;2023-04-28T14:32:53;14.11;87.96
65207;SHT31;58477;48.072;11.970;2023-04-28T14:35:19;14.15;88.75
65207;SHT31;58477;48.072;11.970;2023-04-28T14:37:47;14.12;87.26
65207;SHT31;58477;48.072;11.970;2023-04-28T14:40:13;13.94;89.14
65207;SHT31;58477;48.072;11.970;2023-04-28T14:42:39;14.09;90.17
65207;SHT31;58477;48.072;11.970;2023-04-28T14:45:06;14.16;88.49
65207;SHT31;58477;48.072;11.970;2023-04-28T14:47:33;14.21;89.75
65207;SHT31;58477;48.072;11.970;2023-04-28T14:49:58;14.18;89.23
65207;SHT31;58477;48.072;11.970;2023-04-28T14:52:24;13.94;89.34
65207;SHT31;58477;48.072;11.970;2023-04-28T14:54:53;14.00;90.08
65207;SHT31;58477;48.072;11.970;2023-04-28T14:57:19;13.95;89.35
65207;SHT31;58477;48.072;11.970;2023-04-28T14:59:45;13.82;90.04
65207;SHT31;58477;48.072;11.970;2023-04-28T15:02:11;13.71;89.91
65207;SHT31;58477;48.072;11.970;2023-04-28T15:04:38;13.67;91.39
65207;SHT31;58477;48.072;11.970;2023-04-28T15:07:04;13.71;91.52
65207;SHT31;58477;48.072;11.970;2023-04-28T15:09:29;13.67;91.07
65207;SHT31;58477;48.072;11.970;2023-04-28T15:11:55;13.43;90.87
65207;SHT31;58477;48.072;11.970;2023-04-28T15:14:20;13.24;91.91
65207;SHT31;58477;48.072;11.970;2023-04-28T15:16:46;13.20;91.71
65207;SHT31;58477;48.072;11.970;2023-04-28T15:19:13;13.24;92.56
65207;SHT31;58477;48.072;11.970;2023-04-28T15:21:39;13.11;92.16
65207;SHT31;58477;48.072;11.970;2023-04-28T15:24:05;13.07;92.50
65207;SHT31;58477;48.072;11.970;2023-04-28T15:26:31;13.03;93.95
65207;SHT31;58477;48.072;11.970;2023-04-28T15:28:56;12.95;94.28
65207;SHT31;58477;48.072;11.970;2023-04-28T15:31:22;12.89;93.55
65207;SHT31;58477;48.072;11.970;2023-04-28T15:33:49;12.86;93.27
65207;SHT31;58477;48.072;11.970;2023-04-28T15:36:15;12.77;93.98
65207;SHT31;58477;48.072;11.970;2023-04-28T15:38:43;12.72;94.82
65207;SHT31;58477;48.072;11.970;2023-04-28T15:41:10;12.69;94.58
65207;SHT31;58477;48.072;11.970;2023-04-28T15:43:36;12.69;95.72
65207;SHT31;58477;48.072;11.970;2023-04-28T15:46:02;12.65;95.60